Airfield :
LOGIN :

Register | Disclaimer

   EN    FR    IT 

 










Legend :    VFR   Marginal VFR   IFR   Intensive IFR   Very Intensive IFR
Visi :
Ceiling :
>= 8 km
>= 3000ft
5 to 8 km
1000 to 3000 ft
1500m to 5 km
500 to 1000 ft
800 to 1500m
200 to 500 ft
< 800m
< 200 ft
Symbols :   Thunderstorms  Fog  Heavy snow  Heavy precipitations  Wind > 20 kt
SIGMETs :     Misc.  Thunderstorms  Icing  Turbulence  Mountain Waves  Volcanic Ashes






- Airport Elevation : 17 ft
- IATA code : GRQ


EHGG - Groningen Eelde

CURRENT METAR :
  • 190455Z AUTO 26010KT 230V300 9999 SCT022 BKN049 05/02 Q1010

EXPIRED METARs :
  • 190425Z AUTO 26009KT 230V290 9999 FEW025 05/02 Q1009
  • 190355Z AUTO 26009KT 9999 NSC 05/02 Q1009
  • 190325Z AUTO 26010KT 230V300 9999 NSC 05/03 Q1008
  • 190255Z AUTO 23008KT 9999 FEW021 SCT026 BKN049 04/03 Q1008
  • 190225Z AUTO 24010KT 210V280 9999 FEW008 SCT031 BKN042 05/04 Q1008

TAF COR TAF EHGG
Valid from the 19 at 00:00 until the 20 at 06:00 UTC


182334Z 1900/2006 21020KT 6000 RA BKN020
BECMG 1900/1902 28012KT 9999 NSW
TEMPO 1900/1901 26025G35KT 2500 RA TSRAGS BKN012 SCT015CB
PROB40
TEMPO 1901/1911 28017G27KT 6000 SHRAGS SCT020CB
BECMG 1915/1918 24010KT
BECMG 1918/1921 20010KT
BECMG 1922/2001 7000 -RA BKN014
PROB40
TEMPO 2001/2006 4000 RADZ BKN007



MET'MAP, your aeronautical weather chart ! - Copyright ORBIFLY December 2007 - Disclaimer

ORBIFLY MET'MAP TEAM :

Programming & Development : Alexandra Zaïnal
Concept & original design : Baudouin d'Aumeries
Assistance for programming : Marc-Olivier Méhu
Technical & hardware support : Manuel Goepfert

Contact : metmap@orbifly.com




SOURCES & CREDITS :

   NOAA